Time;durP1;ratioP1;P1;durP2;ratioP2;P2;SDS_P1;SDS_P2;PMS_P1;PMS_P2;Temp;Humidity;BMP_temperature;BMP_pressure;BME280_temperature;BME280_humidity;BME280_pressure;Samples;Min_cycle;Max_cycle;Signal;HPM_P1;HPM_P2
2023/08/25 00:00:41;;;;;;;7.67;4.03;;;20.50;1.00;;;;;;8313356;28;20216;-64
2023/08/25 00:04:42;;;;;;;5.87;4.43;;;20.50;1.00;;;;;;8312893;28;20208;-64
2023/08/25 00:08:43;;;;;;;5.93;3.90;;;20.50;1.00;;;;;;8315536;28;20619;-65
2023/08/25 00:12:46;;;;;;;8.23;4.43;;;20.50;1.00;;;;;;8299528;28;20190;-63
2023/08/25 00:16:47;;;;;;;4.30;3.90;;;20.50;1.00;;;;;;8312614;28;20216;-66
2023/08/25 00:20:49;;;;;;;4.97;4.07;;;20.50;1.00;;;;;;8297552;28;20210;-65
2023/08/25 00:24:52;;;;;;;4.63;4.13;;;20.40;1.00;;;;;;8306150;28;20234;-63
2023/08/25 00:28:53;;;;;;;4.70;4.27;;;20.30;1.00;;;;;;8295425;28;20190;-64
2023/08/25 00:32:54;;;;;;;7.33;4.50;;;20.30;1.00;;;;;;8318393;28;20202;-65
2023/08/25 00:36:54;;;;;;;6.03;4.60;;;20.30;1.00;;;;;;8307426;28;20220;-64
2023/08/25 00:40:55;;;;;;;6.00;4.17;;;20.30;1.00;;;;;;8304695;28;20559;-64
2023/08/25 00:44:56;;;;;;;5.10;4.20;;;20.20;1.00;;;;;;8306588;28;20193;-63
2023/08/25 00:48:58;;;;;;;4.80;4.40;;;20.20;1.00;;;;;;8306489;28;20297;-64
2023/08/25 00:53:01;;;;;;;4.67;4.27;;;20.10;1.00;;;;;;8309957;28;20482;-63
2023/08/25 00:57:05;;;;;;;5.77;4.57;;;20.10;1.00;;;;;;8301437;28;20198;-63
2023/08/25 01:01:06;;;;;;;5.40;4.83;;;20.00;1.00;;;;;;8295544;28;20229;-63
2023/08/25 01:05:07;;;;;;;4.90;4.40;;;20.00;1.00;;;;;;8313005;28;20250;-63
2023/08/25 01:09:10;;;;;;;5.97;4.60;;;20.00;1.00;;;;;;8319037;28;20358;-64
2023/08/25 01:13:19;;;;;;;5.83;5.27;;;20.00;1.00;;;;;;8322023;28;20224;-63
2023/08/25 01:17:36;;;;;;;7.03;4.93;;;20.00;1.00;;;;;;8312242;28;20198;-65
2023/08/25 01:21:41;;;;;;;5.80;5.27;;;20.00;1.00;;;;;;8300122;28;20223;-66
2023/08/25 01:25:43;;;;;;;5.47;4.97;;;20.00;1.00;;;;;;8302850;28;20221;-62
2023/08/25 01:29:44;;;;;;;5.70;4.80;;;20.00;1.00;;;;;;8307209;28;20246;-63
2023/08/25 01:33:46;;;;;;;8.13;5.30;;;19.90;1.00;;;;;;8314557;28;20417;-64
2023/08/25 01:38:08;;;;;;;6.47;5.43;;;19.90;1.00;;;;;;8317935;28;20219;-61
2023/08/25 01:42:09;;;;;;;7.07;6.37;;;19.90;1.00;;;;;;8305003;28;20214;-62
2023/08/25 01:46:13;;;;;;;7.37;6.57;;;19.90;1.00;;;;;;8299555;28;20243;-61
2023/08/25 01:50:15;;;;;;;6.33;5.73;;;19.80;1.00;;;;;;8318093;28;20218;-62
2023/08/25 01:54:15;;;;;;;6.10;5.50;;;19.80;1.00;;;;;;8319822;28;20198;-61
2023/08/25 01:58:16;;;;;;;7.07;6.37;;;19.80;1.00;;;;;;8319049;28;20247;-63
2023/08/25 02:02:17;;;;;;;6.50;5.97;;;19.70;1.00;;;;;;8298742;28;20213;-63
2023/08/25 02:06:18;;;;;;;6.87;6.27;;;19.70;1.00;;;;;;8304971;28;20216;-63
2023/08/25 02:10:19;;;;;;;10.43;7.13;;;19.70;1.00;;;;;;8299337;28;20320;-60
2023/08/25 02:14:20;;;;;;;6.60;5.93;;;19.60;1.00;;;;;;8304302;28;20198;-62
2023/08/25 02:18:21;;;;;;;7.80;6.60;;;19.60;1.00;;;;;;8304947;28;20280;-61
2023/08/25 02:22:21;;;;;;;8.17;6.80;;;19.50;1.00;;;;;;8314517;28;20241;-61
2023/08/25 02:26:22;;;;;;;7.73;6.43;;;19.50;8.90;;;;;;8302255;28;20333;-62
2023/08/25 02:30:23;;;;;;;7.00;6.17;;;19.50;13.50;;;;;;8299889;28;20205;-60
2023/08/25 02:34:24;;;;;;;7.97;6.60;;;19.50;16.70;;;;;;8298881;28;20193;-65
2023/08/25 02:38:25;;;;;;;6.93;6.33;;;19.50;22.80;;;;;;8313084;28;20267;-61
2023/08/25 02:42:26;;;;;;;7.60;6.80;;;19.60;23.30;;;;;;8301214;28;20214;-66
2023/08/25 02:46:27;;;;;;;7.47;6.67;;;19.60;29.50;;;;;;8314780;28;20205;-64
2023/08/25 02:50:28;;;;;;;7.03;6.33;;;19.60;22.90;;;;;;8299009;28;20187;-63
2023/08/25 02:54:29;;;;;;;6.93;6.23;;;19.60;18.30;;;;;;8308770;28;20186;-64
2023/08/25 02:58:30;;;;;;;7.77;6.97;;;19.60;10.60;;;;;;8302668;28;20218;-65
2023/08/25 03:02:31;;;;;;;7.37;5.97;;;19.50;17.10;;;;;;8318833;28;20217;-65
2023/08/25 03:06:32;;;;;;;6.80;6.10;;;19.50;20.50;;;;;;8312354;28;20178;-63
2023/08/25 03:10:32;;;;;;;9.97;6.77;;;19.60;14.30;;;;;;8313149;28;20212;-63
2023/08/25 03:14:33;;;;;;;7.43;6.73;;;19.60;5.90;;;;;;8295220;28;20202;-64
2023/08/25 03:18:34;;;;;;;8.50;7.23;;;19.60;1.00;;;;;;8313079;28;20568;-62
2023/08/25 03:22:35;;;;;;;7.23;6.53;;;19.50;28.10;;;;;;8298872;28;20277;-62
2023/08/25 03:26:37;;;;;;;10.33;7.57;;;19.50;39.00;;;;;;8314859;28;20188;-62
2023/08/25 03:30:37;;;;;;;10.27;7.57;;;19.40;85.20;;;;;;8311519;28;20182;-64
2023/08/25 03:34:40;;;;;;;7.47;6.80;;;19.40;99.90;;;;;;8312522;28;20186;-63
2023/08/25 03:38:40;;;;;;;8.53;7.63;;;19.40;99.90;;;;;;8308718;28;20191;-64
2023/08/25 03:42:41;;;;;;;8.70;7.90;;;19.30;99.90;;;;;;8301183;28;20212;-63
2023/08/25 03:46:42;;;;;;;8.27;7.43;;;19.40;99.90;;;;;;8296685;28;20189;-62
2023/08/25 03:50:47;;;;;;;8.43;7.60;;;19.30;99.90;;;;;;8304212;28;20194;-65
2023/08/25 03:54:47;;;;;;;8.33;7.00;;;19.30;99.90;;;;;;8306972;28;20248;-63
2023/08/25 03:58:48;;;;;;;8.80;8.00;;;19.30;99.90;;;;;;8294099;28;20244;-64
2023/08/25 04:02:49;;;;;;;10.67;8.30;;;19.30;99.90;;;;;;8292251;28;20221;-63
2023/08/25 04:06:50;;;;;;;8.30;7.07;;;19.30;99.90;;;;;;8296359;28;20304;-63
2023/08/25 04:10:51;;;;;;;9.70;8.00;;;19.30;99.90;;;;;;8331500;28;20214;-64
2023/08/25 04:14:52;;;;;;;8.40;7.60;;;19.30;99.90;;;;;;8310555;28;20190;-64
2023/08/25 04:18:53;;;;;;;8.40;7.60;;;19.30;99.90;;;;;;8318372;28;20185;-63
2023/08/25 04:22:54;;;;;;;8.17;7.37;;;19.30;99.90;;;;;;8301380;28;20243;-65
2023/08/25 04:26:54;;;;;;;7.57;6.90;;;19.30;99.90;;;;;;8322086;28;20194;-65
2023/08/25 04:30:55;;;;;;;7.77;7.07;;;19.20;99.90;;;;;;8300829;28;20243;-65
2023/08/25 04:34:56;;;;;;;7.73;7.03;;;19.20;99.90;;;;;;8306060;28;20190;-64
2023/08/25 04:38:57;;;;;;;8.50;7.70;;;19.10;99.90;;;;;;8298469;28;20308;-64
2023/08/25 04:42:57;;;;;;;9.27;7.23;;;19.10;99.90;;;;;;8320716;28;20217;-65
2023/08/25 04:46:58;;;;;;;8.80;8.07;;;19.10;99.90;;;;;;8306257;28;20191;-65
2023/08/25 04:50:59;;;;;;;8.10;7.30;;;19.10;99.90;;;;;;8315528;28;20189;-64
2023/08/25 04:55:00;;;;;;;7.97;7.07;;;19.10;99.90;;;;;;8305880;28;20190;-64
2023/08/25 04:59:01;;;;;;;10.10;7.00;;;19.10;99.90;;;;;;8316403;28;20187;-64
2023/08/25 05:03:01;;;;;;;7.40;6.73;;;19.10;99.90;;;;;;8303227;28;20221;-63
2023/08/25 05:07:02;;;;;;;8.10;7.30;;;19.20;99.90;;;;;;8317449;28;20178;-64
2023/08/25 05:11:03;;;;;;;8.07;7.27;;;19.30;99.90;;;;;;8300918;28;20277;-64
2023/08/25 05:15:04;;;;;;;8.60;7.80;;;19.40;99.90;;;;;;8313643;28;20273;-64
2023/08/25 05:19:05;;;;;;;8.73;6.50;;;19.60;99.90;;;;;;8316054;28;20186;-66
2023/08/25 05:23:06;;;;;;;7.47;6.87;;;19.80;99.90;;;;;;8319018;28;20224;-64
2023/08/25 05:27:06;;;;;;;7.90;7.20;;;20.10;99.90;;;;;;8323130;28;20181;-64
2023/08/25 05:31:08;;;;;;;6.90;6.20;;;20.40;99.90;;;;;;8291963;28;20190;-65
2023/08/25 05:35:09;;;;;;;8.60;6.00;;;20.70;52.90;;;;;;8295492;28;20619;-66
2023/08/25 05:39:11;;;;;;;7.63;6.77;;;20.90;8.80;;;;;;8302608;28;20434;-67
2023/08/25 05:43:12;;;;;;;6.70;6.10;;;21.20;1.00;;;;;;8302473;28;20218;-65
2023/08/25 05:47:13;;;;;;;8.00;6.07;;;21.30;1.00;;;;;;8293309;28;20706;-65
2023/08/25 05:51:14;;;;;;;5.90;5.40;;;21.40;1.00;;;;;;8299867;28;20214;-66
2023/08/25 05:55:15;;;;;;;6.37;5.77;;;21.50;1.00;;;;;;8291279;28;20243;-65
2023/08/25 05:59:15;;;;;;;6.87;5.90;;;21.70;1.00;;;;;;8306078;28;20194;-66
2023/08/25 06:03:16;;;;;;;6.13;5.30;;;21.80;1.00;;;;;;8310127;28;20222;-66
2023/08/25 06:07:17;;;;;;;5.13;4.73;;;22.00;1.00;;;;;;8316405;28;20178;-66
2023/08/25 06:11:18;;;;;;;5.60;5.10;;;22.10;1.00;;;;;;8312585;28;20217;-67
2023/08/25 06:15:18;;;;;;;6.07;5.57;;;22.30;1.00;;;;;;8311605;28;20190;-66
2023/08/25 06:19:19;;;;;;;5.80;5.30;;;22.50;1.00;;;;;;8322769;28;20209;-67
2023/08/25 06:23:20;;;;;;;5.80;5.27;;;22.80;1.00;;;;;;8303725;28;20267;-67
2023/08/25 06:27:21;;;;;;;5.30;4.80;;;23.10;1.00;;;;;;8322876;28;20189;-70
2023/08/25 06:31:22;;;;;;;4.83;4.43;;;23.40;1.00;;;;;;8324787;28;20323;-67
2023/08/25 06:35:22;;;;;;;5.43;4.37;;;23.60;1.00;;;;;;8325084;28;20193;-67
2023/08/25 06:39:25;;;;;;;5.77;4.20;;;23.90;1.00;;;;;;8324752;28;20203;-67
2023/08/25 06:43:26;;;;;;;6.07;4.20;;;24.10;1.00;;;;;;8310331;28;20238;-66
2023/08/25 06:47:27;;;;;;;4.47;3.47;;;24.30;1.00;;;;;;8318027;28;20229;-65
2023/08/25 06:51:28;;;;;;;5.00;3.73;;;24.50;1.00;;;;;;8329975;28;20595;-65
2023/08/25 06:55:29;;;;;;;6.10;3.80;;;24.60;1.00;;;;;;8308300;28;20186;-66
2023/08/25 06:59:30;;;;;;;6.05;3.88;;;24.80;1.00;;;;;;8319907;28;20297;-66
2023/08/25 07:03:30;;;;;;;5.20;3.95;;;25.00;1.00;;;;;;8303735;28;20213;-67
2023/08/25 07:07:31;;;;;;;5.53;3.42;;;25.20;1.00;;;;;;8326516;28;20234;-66
2023/08/25 07:11:32;;;;;;;5.68;3.85;;;25.30;1.00;;;;;;8319074;28;20284;-67
2023/08/25 07:15:34;;;;;;;6.85;3.80;;;25.50;1.00;;;;;;8325570;28;20194;-67
2023/08/25 07:19:34;;;;;;;5.97;4.15;;;25.70;1.00;;;;;;8313062;28;20393;-67
2023/08/25 07:23:35;;;;;;;5.85;3.00;;;25.80;1.00;;;;;;8322678;28;20210;-69
2023/08/25 07:27:36;;;;;;;7.15;3.45;;;25.80;1.00;;;;;;8323792;28;20214;-69
2023/08/25 07:31:37;;;;;;;5.57;3.33;;;25.80;1.00;;;;;;8307715;28;20472;-66
2023/08/25 07:35:41;;;;;;;3.78;2.97;;;25.90;1.00;;;;;;8298742;28;20193;-66
2023/08/25 07:39:42;;;;;;;6.72;3.40;;;26.10;99.90;;;;;;8294030;28;20297;-68
2023/08/25 07:43:42;;;;;;;6.05;3.53;;;26.20;99.90;;;;;;8315132;28;20218;-67
2023/08/25 07:47:43;;;;;;;7.10;3.22;;;26.10;99.90;;;;;;8313858;28;20178;-68
2023/08/25 07:51:44;;;;;;;5.13;3.00;;;26.30;99.90;;;;;;8317310;28;20182;-67
2023/08/25 07:55:45;;;;;;;4.70;2.97;;;26.30;99.90;;;;;;8291361;28;20193;-65
2023/08/25 07:59:46;;;;;;;5.10;2.90;;;26.50;99.90;;;;;;8321969;28;20203;-66
2023/08/25 08:03:47;;;;;;;5.85;3.30;;;26.60;99.90;;;;;;8317357;28;20218;-66
2023/08/25 08:07:48;;;;;;;4.75;3.58;;;26.60;99.90;;;;;;8302981;28;20186;-65
2023/08/25 08:11:49;;;;;;;3.70;3.10;;;26.80;99.90;;;;;;8318285;28;20205;-68
2023/08/25 08:15:49;;;;;;;4.63;3.10;;;26.90;99.90;;;;;;8304535;28;20288;-65
2023/08/25 08:19:50;;;;;;;4.80;2.53;;;27.10;99.90;;;;;;8322281;28;20207;-66
2023/08/25 08:23:51;;;;;;;4.53;2.90;;;27.20;99.90;;;;;;8306205;28;20301;-66
2023/08/25 08:27:51;;;;;;;6.30;2.97;;;27.10;99.90;;;;;;8324048;28;20186;-69
2023/08/25 08:31:55;;;;;;;4.13;2.85;;;27.20;99.90;;;;;;8299881;28;20320;-67
2023/08/25 08:35:55;;;;;;;7.78;2.75;;;27.10;99.90;;;;;;8320367;28;20186;-66
2023/08/25 08:39:56;;;;;;;3.50;2.78;;;27.10;99.90;;;;;;8317614;28;20244;-65
2023/08/25 08:44:00;;;;;;;4.30;2.70;;;27.20;99.90;;;;;;8294621;28;20216;-66
2023/08/25 08:48:04;;;;;;;4.60;2.85;;;27.40;99.90;;;;;;8300980;28;20193;-64
2023/08/25 08:52:06;;;;;;;5.30;2.80;;;27.50;99.90;;;;;;8328249;28;20186;-63
2023/08/25 08:56:08;;;;;;;4.15;2.78;;;27.70;99.90;;;;;;8328274;28;20226;-63
2023/08/25 09:00:12;;;;;;;2.67;2.42;;;27.90;99.90;;;;;;8322784;28;20223;-66
2023/08/25 09:04:13;;;;;;;3.88;2.70;;;28.10;99.90;;;;;;8330372;28;20283;-64
2023/08/25 09:08:15;;;;;;;4.85;2.83;;;28.30;99.90;;;;;;8305132;28;20181;-65
2023/08/25 09:12:18;;;;;;;5.88;3.40;;;28.30;99.90;;;;;;8325777;28;20229;-63
2023/08/25 09:16:21;;;;;;;5.95;2.83;;;28.20;99.90;;;;;;8314351;28;20219;-66
2023/08/25 09:20:22;;;;;;;4.75;2.92;;;28.20;99.90;;;;;;8303360;28;20217;-66
2023/08/25 09:24:23;;;;;;;5.25;2.78;;;28.20;99.90;;;;;;8311016;28;20294;-65
2023/08/25 09:28:25;;;;;;;6.45;2.90;;;28.30;99.90;;;;;;8321302;28;20503;-67
2023/08/25 09:32:28;;;;;;;5.30;2.67;;;28.40;99.90;;;;;;8303183;28;20197;-68
2023/08/25 09:36:29;;;;;;;4.22;2.55;;;28.70;99.90;;;;;;8324880;28;20183;-67
2023/08/25 09:40:35;;;;;;;3.22;2.67;;;28.80;99.90;;;;;;8319781;28;20206;-67
2023/08/25 09:44:37;;;;;;;4.22;2.70;;;28.50;99.90;;;;;;8307467;28;20186;-65
2023/08/25 09:48:38;;;;;;;6.38;2.83;;;28.50;99.90;;;;;;8330112;28;20182;-66
2023/08/25 09:52:42;;;;;;;6.85;3.00;;;28.60;99.90;;;;;;8315367;28;20196;-67
2023/08/25 09:56:48;;;;;;;4.45;2.72;;;28.90;99.90;;;;;;8310902;28;20191;-66
2023/08/25 10:00:49;;;;;;;5.30;2.60;;;28.90;99.90;;;;;;8316062;28;20226;-66
2023/08/25 10:04:50;;;;;;;3.20;2.65;;;29.30;99.90;;;;;;8325866;28;20213;-66
2023/08/25 10:08:52;;;;;;;6.05;2.47;;;29.50;99.90;;;;;;8322280;28;20209;-65
2023/08/25 10:12:57;;;;;;;3.42;2.58;;;29.60;99.90;;;;;;8321060;28;20186;-67
2023/08/25 10:17:01;;;;;;;7.97;2.65;;;29.80;99.90;;;;;;8322652;28;20181;-65
2023/08/25 10:21:02;;;;;;;4.22;2.67;;;30.10;99.90;;;;;;8304953;28;20287;-68
2023/08/25 10:25:04;;;;;;;4.28;2.45;;;29.80;99.90;;;;;;8317448;28;20400;-66
2023/08/25 10:29:06;;;;;;;8.95;2.78;;;29.70;99.90;;;;;;8292984;28;20193;-65
2023/08/25 10:33:11;;;;;;;6.13;3.00;;;29.70;99.90;;;;;;8312209;28;20188;-69
2023/08/25 10:37:37;;;;;;;5.65;2.30;;;29.60;99.90;;;;;;8310839;28;20187;-66
2023/08/25 10:41:42;;;;;;;2.97;2.13;;;29.70;99.90;;;;;;8307606;28;20263;-67
2023/08/25 10:45:49;;;;;;;3.03;2.28;;;29.80;99.90;;;;;;8305867;28;20183;-68
2023/08/25 10:50:00;;;;;;;4.72;2.67;;;30.00;99.90;;;;;;8323867;28;20187;-67
2023/08/25 10:54:00;;;;;;;6.10;2.78;;;30.00;99.90;;;;;;8313305;28;20198;-64
2023/08/25 10:58:03;;;;;;;4.57;2.58;;;30.10;99.90;;;;;;8305457;28;20217;-68
2023/08/25 11:02:04;;;;;;;6.13;2.70;;;30.30;99.90;;;;;;8302342;28;20216;-67
2023/08/25 11:06:51;;;;;;;4.97;2.60;;;30.50;99.90;;;;;;8318061;28;20186;-67
2023/08/25 11:11:13;;;;;;;7.63;3.15;;;30.70;99.90;;;;;;8308952;28;20310;-66
2023/08/25 11:15:14;;;;;;;4.82;2.65;;;30.80;99.90;;;;;;8301720;28;20268;-69
2023/08/25 11:19:15;;;;;;;5.90;2.88;;;30.80;99.90;;;;;;8321664;28;20596;-68
2023/08/25 11:23:16;;;;;;;5.82;2.33;;;30.70;99.90;;;;;;8295806;28;20370;-68
2023/08/25 11:27:18;;;;;;;8.05;2.63;;;30.60;99.90;;;;;;8291265;28;20305;-66
2023/08/25 11:31:21;;;;;;;3.92;2.80;;;30.60;99.90;;;;;;8311162;28;20220;-70
2023/08/25 11:35:23;;;;;;;6.07;2.70;;;30.80;99.90;;;;;;8316297;28;20305;-68
2023/08/25 11:39:24;;;;;;;7.43;3.15;;;30.90;99.90;;;;;;8306007;28;20189;-67
2023/08/25 11:43:36;;;;;;;4.68;2.80;;;30.70;99.90;;;;;;8310813;28;20198;-68
2023/08/25 11:47:40;;;;;;;7.57;2.70;;;30.70;99.90;;;;;;8307967;28;20189;-68
2023/08/25 11:51:41;;;;;;;6.28;3.30;;;30.80;99.90;;;;;;8289715;28;20186;-69
2023/08/25 11:55:42;;;;;;;4.80;2.88;;;30.80;99.90;;;;;;8306296;28;20190;-68
2023/08/25 11:59:46;;;;;;;3.63;3.20;;;30.90;99.90;;;;;;8307965;28;20194;-68
2023/08/25 12:03:47;;;;;;;6.75;3.10;;;31.10;99.90;;;;;;8311913;28;20218;-68
2023/08/25 12:07:48;;;;;;;4.25;2.60;;;31.40;99.90;;;;;;8301708;28;20185;-68
2023/08/25 12:12:01;;;;;;;5.18;2.90;;;31.70;99.90;;;;;;8303220;28;20198;-67
2023/08/25 12:16:05;;;;;;;3.53;2.72;;;31.60;99.90;;;;;;8296883;28;20288;-68
2023/08/25 12:20:14;;;;;;;4.35;2.70;;;31.60;99.90;;;;;;8294644;28;20194;-68
2023/08/25 12:24:15;;;;;;;4.55;3.05;;;31.50;99.90;;;;;;8300793;28;20262;-67
2023/08/25 12:28:17;;;;;;;3.10;2.63;;;31.60;99.90;;;;;;8317257;28;20241;-67
2023/08/25 12:32:18;;;;;;;6.07;3.22;;;31.90;99.90;;;;;;8295782;28;20190;-67
2023/08/25 12:36:18;;;;;;;5.55;2.75;;;32.10;99.90;;;;;;8310588;28;20193;-67
2023/08/25 12:40:24;;;;;;;6.10;3.05;;;32.30;99.90;;;;;;8307421;28;20531;-67
2023/08/25 12:44:25;;;;;;;3.70;2.70;;;32.40;99.90;;;;;;8314816;28;20208;-68
2023/08/25 12:48:26;;;;;;;3.42;3.13;;;32.20;99.90;;;;;;8310429;28;20206;-67
2023/08/25 12:52:31;;;;;;;6.18;3.13;;;32.10;99.90;;;;;;8325118;28;20190;-69
2023/08/25 12:56:32;;;;;;;3.47;2.40;;;32.20;99.90;;;;;;8321747;28;20193;-68
2023/08/25 13:00:33;;;;;;;7.28;2.50;;;32.40;99.90;;;;;;8323407;28;20214;-67
2023/08/25 13:04:34;;;;;;;4.85;2.88;;;32.50;99.90;;;;;;8308967;28;20330;-69
2023/08/25 13:08:35;;;;;;;3.08;2.35;;;32.80;99.90;;;;;;8308421;28;20294;-68
2023/08/25 13:12:36;;;;;;;5.07;2.90;;;33.10;99.90;;;;;;8324815;28;20182;-68
2023/08/25 13:16:37;;;;;;;4.85;2.40;;;33.20;99.90;;;;;;8329219;28;20189;-67
2023/08/25 13:20:38;;;;;;;5.40;2.97;;;33.30;99.90;;;;;;8311613;28;20208;-70
2023/08/25 13:24:39;;;;;;;7.53;2.55;;;33.10;99.90;;;;;;8310326;28;20259;-66
2023/08/25 13:28:40;;;;;;;3.15;2.40;;;32.80;99.90;;;;;;8306187;28;20183;-66
2023/08/25 13:32:40;;;;;;;7.82;2.38;;;32.70;99.90;;;;;;8304381;28;20186;-70
2023/08/25 13:36:41;;;;;;;3.97;2.60;;;32.60;99.90;;;;;;8306415;28;20205;-68
2023/08/25 13:40:42;;;;;;;3.03;2.25;;;32.30;99.90;;;;;;8310474;28;20210;-66
2023/08/25 13:44:43;;;;;;;3.58;2.65;;;32.10;99.90;;;;;;8305795;28;20190;-65
2023/08/25 13:48:44;;;;;;;4.43;2.22;;;31.90;99.90;;;;;;8321384;28;20186;-65
2023/08/25 13:52:45;;;;;;;5.50;2.58;;;31.70;99.90;;;;;;8307275;28;20192;-63
2023/08/25 13:56:46;;;;;;;3.63;2.20;;;31.90;99.90;;;;;;8307278;28;20194;-67
2023/08/25 14:00:49;;;;;;;4.45;2.30;;;32.10;99.90;;;;;;8321217;28;20241;-64
2023/08/25 14:04:49;;;;;;;5.15;2.95;;;32.10;99.90;;;;;;8322152;28;20217;-65
2023/08/25 14:08:50;;;;;;;3.97;2.42;;;32.10;99.90;;;;;;8304943;28;20210;-69
2023/08/25 14:12:52;;;;;;;4.15;2.30;;;31.90;99.90;;;;;;8313889;28;20194;-68
2023/08/25 14:16:56;;;;;;;2.47;2.05;;;31.50;99.90;;;;;;8311981;28;20187;-67
2023/08/25 14:20:56;;;;;;;3.42;2.20;;;31.30;99.90;;;;;;8311275;28;20203;-69
2023/08/25 14:24:57;;;;;;;3.95;2.13;;;31.00;99.90;;;;;;8316408;28;20190;-66
2023/08/25 14:29:13;;;;;;;4.57;2.38;;;30.50;99.90;;;;;;8305974;28;20227;-64
2023/08/25 14:33:15;;;;;;;6.95;3.13;;;29.90;99.90;;;;;;8299196;28;20190;-64
2023/08/25 14:37:15;;;;;;;10.80;4.45;;;29.50;99.90;;;;;;8308194;28;20197;-65
2023/08/25 14:41:17;;;;;;;10.13;3.42;;;28.10;99.90;;;;;;8306849;28;20210;-63
2023/08/25 14:45:17;;;;;;;6.35;3.15;;;26.20;99.90;;;;;;8310481;28;20208;-63
2023/08/25 14:49:18;;;;;;;7.28;3.22;;;25.30;1.00;;;;;;8306865;28;20189;-65
2023/08/25 14:53:19;;;;;;;7.47;3.10;;;25.00;1.00;;;;;;8307507;28;20449;-66
2023/08/25 14:57:20;;;;;;;7.18;3.08;;;25.20;1.00;;;;;;8302156;28;20186;-64
2023/08/25 15:01:21;;;;;;;4.53;2.60;;;25.50;1.00;;;;;;8322684;28;20214;-66
2023/08/25 15:05:22;;;;;;;7.10;2.50;;;25.80;1.00;;;;;;8313128;28;20197;-66
2023/08/25 15:09:22;;;;;;;4.07;2.13;;;26.00;1.00;;;;;;8299101;28;20206;-65
2023/08/25 15:13:24;;;;;;;4.05;2.30;;;26.30;1.00;;;;;;8305498;28;20218;-65
2023/08/25 15:17:28;;;;;;;5.10;2.35;;;26.50;1.00;;;;;;8303975;28;20739;-64
2023/08/25 15:21:30;;;;;;;5.50;2.08;;;26.60;1.00;;;;;;8294469;28;20328;-65
2023/08/25 15:25:31;;;;;;;5.95;2.50;;;26.70;1.00;;;;;;8299363;28;20205;-64
2023/08/25 15:29:33;;;;;;;3.88;2.17;;;26.70;1.00;;;;;;8319208;28;20185;-64
2023/08/25 15:33:35;;;;;;;6.07;2.20;;;26.80;1.00;;;;;;8307318;28;20190;-64
2023/08/25 15:37:36;;;;;;;4.75;1.90;;;27.10;1.00;;;;;;8307080;28;20285;-64
2023/08/25 15:41:37;;;;;;;2.75;1.65;;;27.30;1.00;;;;;;8325952;28;20205;-64
2023/08/25 15:45:41;;;;;;;3.15;1.67;;;27.50;1.00;;;;;;8306524;28;20185;-63
2023/08/25 15:49:45;;;;;;;5.22;2.28;;;27.60;1.00;;;;;;8303619;28;20569;-64
2023/08/25 15:53:45;;;;;;;4.00;2.25;;;27.60;1.00;;;;;;8312716;28;20184;-66
2023/08/25 15:57:46;;;;;;;4.05;1.90;;;27.50;1.00;;;;;;8297509;28;20239;-64
2023/08/25 16:01:47;;;;;;;3.22;2.00;;;27.40;1.00;;;;;;8314931;28;20214;-65
2023/08/25 16:06:00;;;;;;;3.13;1.80;;;27.40;1.00;;;;;;8313118;28;20194;-64
2023/08/25 16:10:01;;;;;;;2.78;1.48;;;27.40;1.00;;;;;;8321221;28;20236;-63
2023/08/25 16:14:03;;;;;;;1.90;1.55;;;27.50;1.00;;;;;;8325320;28;20225;-64
2023/08/25 16:18:04;;;;;;;2.55;1.70;;;27.40;1.00;;;;;;8306931;28;20190;-65
2023/08/25 16:22:04;;;;;;;3.10;1.75;;;27.20;1.00;;;;;;8305121;28;20221;-65
2023/08/25 16:26:06;;;;;;;2.50;1.65;;;26.90;1.00;;;;;;8332469;28;20577;-65
2023/08/25 16:30:07;;;;;;;1.85;1.65;;;26.80;1.00;;;;;;8306263;28;20190;-63
2023/08/25 16:34:08;;;;;;;5.68;5.18;;;26.70;1.00;;;;;;8311866;28;20269;-64
2023/08/25 16:38:09;;;;;;;2.65;2.42;;;26.60;1.00;;;;;;8297284;28;20546;-62
2023/08/25 16:42:09;;;;;;;2.63;1.88;;;26.60;1.00;;;;;;8317929;28;20202;-63
2023/08/25 16:46:10;;;;;;;2.05;1.42;;;26.50;1.00;;;;;;8304100;28;20261;-63
2023/08/25 16:50:11;;;;;;;3.80;1.83;;;26.40;1.00;;;;;;8303229;28;20189;-63
2023/08/25 16:54:12;;;;;;;2.70;1.77;;;26.20;1.00;;;;;;8298297;28;20186;-64
2023/08/25 16:58:13;;;;;;;2.72;1.85;;;26.00;1.00;;;;;;8311086;28;20202;-63
2023/08/25 17:02:15;;;;;;;4.03;1.90;;;25.90;1.00;;;;;;8315067;28;20218;-63
2023/08/25 17:06:16;;;;;;;2.15;1.95;;;25.70;1.00;;;;;;8304247;28;20197;-64
2023/08/25 17:10:19;;;;;;;2.87;2.27;;;25.50;1.00;;;;;;8317679;28;20201;-63
2023/08/25 17:14:21;;;;;;;2.13;1.93;;;25.30;1.00;;;;;;8300447;28;20255;-65
2023/08/25 17:18:22;;;;;;;5.77;2.40;;;25.20;1.00;;;;;;8318455;28;20262;-64
2023/08/25 17:22:23;;;;;;;6.17;2.53;;;25.00;6.50;;;;;;8314196;28;20218;-67
2023/08/25 17:26:23;;;;;;;4.33;2.70;;;25.00;56.10;;;;;;8313388;28;20178;-66
2023/08/25 17:30:24;;;;;;;3.20;2.50;;;24.90;98.90;;;;;;8305282;28;20186;-65
2023/08/25 17:34:27;;;;;;;3.28;2.70;;;24.80;99.90;;;;;;8304131;28;20260;-64
2023/08/25 17:38:29;;;;;;;4.33;2.50;;;24.70;99.90;;;;;;8323065;28;20178;-66
2023/08/25 17:42:29;;;;;;;4.13;2.67;;;24.60;99.90;;;;;;8306262;28;20364;-65
2023/08/25 17:46:30;;;;;;;3.90;2.70;;;24.40;99.90;;;;;;8300960;28;20182;-65
2023/08/25 17:50:31;;;;;;;3.50;2.97;;;24.30;99.90;;;;;;8320117;28;20213;-65
2023/08/25 17:54:37;;;;;;;4.50;3.00;;;24.20;99.90;;;;;;8306978;28;20245;-66
2023/08/25 17:58:38;;;;;;;14.10;9.93;;;24.10;99.90;;;;;;8299664;28;20186;-64
2023/08/25 18:02:39;;;;;;;9.17;5.67;;;23.90;1.00;;;;;;8302848;28;20209;-63
2023/08/25 18:06:39;;;;;;;6.50;4.33;;;23.80;1.00;;;;;;8304988;28;20182;-65
2023/08/25 18:10:40;;;;;;;4.47;3.83;;;23.80;1.00;;;;;;8304024;28;20316;-65
2023/08/25 18:14:41;;;;;;;4.87;3.37;;;23.60;1.00;;;;;;8329797;28;20269;-65
2023/08/25 18:18:42;;;;;;;3.60;3.30;;;23.50;9.40;;;;;;8303824;28;20188;-65
2023/08/25 18:22:42;;;;;;;4.70;4.00;;;23.50;99.90;;;;;;8309877;28;20263;-64
2023/08/25 18:26:43;;;;;;;3.67;3.30;;;23.40;99.90;;;;;;8324054;28;20193;-65
2023/08/25 18:30:44;;;;;;;3.47;3.17;;;23.30;99.90;;;;;;8307934;28;20201;-65
2023/08/25 18:34:45;;;;;;;4.27;3.27;;;23.30;99.90;;;;;;8299090;28;20191;-65
2023/08/25 18:38:46;;;;;;;5.23;3.50;;;23.30;99.90;;;;;;8299970;28;20597;-66
2023/08/25 18:42:47;;;;;;;3.90;3.30;;;23.20;99.90;;;;;;8301649;28;20213;-65
2023/08/25 18:46:47;;;;;;;3.50;3.20;;;23.10;99.90;;;;;;8299652;28;20186;-65
2023/08/25 18:50:48;;;;;;;4.23;3.77;;;23.10;1.00;;;;;;8312519;28;20204;-66
2023/08/25 18:54:49;;;;;;;4.33;3.40;;;23.10;1.00;;;;;;8313822;28;20190;-65
2023/08/25 18:58:50;;;;;;;4.13;3.67;;;23.00;1.00;;;;;;8311536;28;20190;-66
2023/08/25 19:02:51;;;;;;;4.83;3.93;;;23.00;1.00;;;;;;8304915;28;20623;-63
2023/08/25 19:06:52;;;;;;;4.57;4.00;;;23.00;1.00;;;;;;8299995;28;20610;-64
2023/08/25 19:10:53;;;;;;;5.30;4.67;;;23.00;1.00;;;;;;8303040;28;20218;-64
2023/08/25 19:14:54;;;;;;;5.47;4.27;;;23.00;99.90;;;;;;8303985;28;20217;-65
2023/08/25 19:18:56;;;;;;;5.17;4.50;;;23.00;99.90;;;;;;8300415;28;20456;-66
2023/08/25 19:22:57;;;;;;;5.10;4.13;;;22.90;99.90;;;;;;8296154;28;20213;-65
2023/08/25 19:26:58;;;;;;;4.93;4.53;;;22.80;99.90;;;;;;8301586;28;20186;-66
2023/08/25 19:31:02;;;;;;;4.73;4.10;;;22.80;99.90;;;;;;8312944;28;20222;-65
2023/08/25 19:35:04;;;;;;;4.07;3.67;;;22.70;99.90;;;;;;8303001;28;21785;-66
2023/08/25 19:39:08;;;;;;;4.20;3.80;;;22.70;99.90;;;;;;8316300;28;20201;-65
2023/08/25 19:43:09;;;;;;;4.23;3.87;;;22.70;99.90;;;;;;8300163;28;20218;-65
2023/08/25 19:47:10;;;;;;;6.77;4.03;;;22.70;99.90;;;;;;8305424;28;20252;-65
2023/08/25 19:51:14;;;;;;;4.90;4.40;;;22.70;1.00;;;;;;8321839;28;20312;-64
2023/08/25 19:55:15;;;;;;;4.87;4.30;;;22.60;1.00;;;;;;8318475;28;20190;-66
2023/08/25 19:59:16;;;;;;;5.13;4.10;;;22.70;99.90;;;;;;8297117;28;20248;-65
2023/08/25 20:03:16;;;;;;;5.47;4.20;;;22.70;99.90;;;;;;8292911;28;20213;-66
2023/08/25 20:07:18;;;;;;;4.57;3.77;;;22.70;22.00;;;;;;8286233;28;20192;-64
2023/08/25 20:11:19;;;;;;;3.63;3.10;;;22.70;1.00;;;;;;8304801;28;20209;-65
2023/08/25 20:15:20;;;;;;;5.03;3.70;;;22.70;99.90;;;;;;8292961;28;20189;-65
2023/08/25 20:19:21;;;;;;;4.07;3.63;;;22.60;99.90;;;;;;8312624;28;20197;-65
2023/08/25 20:23:22;;;;;;;4.93;3.70;;;22.60;99.90;;;;;;8295020;28;20209;-65
2023/08/25 20:27:23;;;;;;;4.17;3.60;;;22.60;99.90;;;;;;8312850;28;20213;-66
2023/08/25 20:31:24;;;;;;;3.70;3.40;;;22.50;99.90;;;;;;8292755;28;20190;-66
2023/08/25 20:35:25;;;;;;;5.67;3.37;;;22.50;99.90;;;;;;8307520;28;20187;-65
2023/08/25 20:39:26;;;;;;;5.47;3.53;;;22.50;99.90;;;;;;8313492;28;20189;-65
2023/08/25 20:43:27;;;;;;;7.53;3.43;;;22.40;99.90;;;;;;8310144;28;20210;-65
2023/08/25 20:47:28;;;;;;;4.73;3.60;;;22.40;99.90;;;;;;8299263;28;20182;-66
2023/08/25 20:51:28;;;;;;;3.80;3.33;;;22.40;99.90;;;;;;8312224;28;20194;-64
2023/08/25 20:55:30;;;;;;;3.73;3.37;;;22.40;99.90;;;;;;8301674;28;20486;-64
2023/08/25 20:59:32;;;;;;;5.73;3.43;;;22.40;99.90;;;;;;8319363;28;20190;-64
2023/08/25 21:03:33;;;;;;;6.97;3.60;;;22.40;99.90;;;;;;8296486;28;20589;-64